sensor_id;sensor_type;location;lat;lon;timestamp;pressure;altitude;pressure_sealevel;temperature;humidity
35551;BME280;21655;46.056;13.616;2023-02-02T00:01:29;100825.03;;;1.59;100.00
35551;BME280;21655;46.056;13.616;2023-02-02T00:03:55;100820.53;;;1.58;100.00
35551;BME280;21655;46.056;13.616;2023-02-02T00:06:24;100817.53;;;1.50;100.00
35551;BME280;21655;46.056;13.616;2023-02-02T00:08:50;100826.28;;;1.42;100.00
35551;BME280;21655;46.056;13.616;2023-02-02T00:11:16;100824.09;;;1.35;100.00
35551;BME280;21655;46.056;13.616;2023-02-02T00:13:42;100817.63;;;1.23;100.00
35551;BME280;21655;46.056;13.616;2023-02-02T00:19:11;100815.25;;;1.19;100.00
35551;BME280;21655;46.056;13.616;2023-02-02T00:21:37;100821.03;;;1.14;100.00
35551;BME280;21655;46.056;13.616;2023-02-02T00:24:05;100817.63;;;1.23;100.00
35551;BME280;21655;46.056;13.616;2023-02-02T00:26:31;100821.34;;;1.22;100.00
35551;BME280;21655;46.056;13.616;2023-02-02T00:28:56;100823.31;;;1.20;100.00
35551;BME280;21655;46.056;13.616;2023-02-02T00:31:22;100821.25;;;1.24;100.00
35551;BME280;21655;46.056;13.616;2023-02-02T00:33:49;100811.66;;;1.18;100.00
35551;BME280;21655;46.056;13.616;2023-02-02T00:36:15;100821.59;;;1.07;100.00
35551;BME280;21655;46.056;13.616;2023-02-02T00:38:41;100811.22;;;0.99;100.00
35551;BME280;21655;46.056;13.616;2023-02-02T00:41:07;100813.28;;;0.96;100.00
35551;BME280;21655;46.056;13.616;2023-02-02T00:43:32;100815.94;;;0.97;100.00
35551;BME280;21655;46.056;13.616;2023-02-02T00:45:58;100819.84;;;1.06;100.00
35551;BME280;21655;46.056;13.616;2023-02-02T00:48:24;100817.97;;;1.06;100.00
35551;BME280;21655;46.056;13.616;2023-02-02T00:50:50;100812.44;;;0.95;100.00
35551;BME280;21655;46.056;13.616;2023-02-02T00:53:16;100819.72;;;0.95;100.00
35551;BME280;21655;46.056;13.616;2023-02-02T00:55:42;100828.16;;;0.92;100.00
35551;BME280;21655;46.056;13.616;2023-02-02T00:58:07;100816.56;;;0.88;100.00
35551;BME280;21655;46.056;13.616;2023-02-02T01:00:33;100817.75;;;0.84;100.00
35551;BME280;21655;46.056;13.616;2023-02-02T01:02:58;100816.56;;;0.88;100.00
35551;BME280;21655;46.056;13.616;2023-02-02T01:05:30;100808.50;;;0.87;100.00
35551;BME280;21655;46.056;13.616;2023-02-02T01:07:56;100821.25;;;0.86;100.00
35551;BME280;21655;46.056;13.616;2023-02-02T01:10:21;100823.00;;;0.87;100.00
35551;BME280;21655;46.056;13.616;2023-02-02T01:12:47;100833.06;;;0.87;100.00
35551;BME280;21655;46.056;13.616;2023-02-02T01:15:13;100834.00;;;0.73;100.00
35551;BME280;21655;46.056;13.616;2023-02-02T01:17:38;100825.72;;;0.62;100.00
35551;BME280;21655;46.056;13.616;2023-02-02T01:20:05;100829.97;;;0.66;100.00
35551;BME280;21655;46.056;13.616;2023-02-02T01:22:31;100828.13;;;0.67;100.00
35551;BME280;21655;46.056;13.616;2023-02-02T01:24:59;100836.63;;;0.62;100.00
35551;BME280;21655;46.056;13.616;2023-02-02T01:27:25;100837.50;;;0.63;100.00
35551;BME280;21655;46.056;13.616;2023-02-02T01:29:50;100835.09;;;0.58;100.00
35551;BME280;21655;46.056;13.616;2023-02-02T01:32:16;100828.44;;;0.62;100.00
35551;BME280;21655;46.056;13.616;2023-02-02T01:34:41;100827.25;;;0.66;100.00
35551;BME280;21655;46.056;13.616;2023-02-02T01:37:08;100831.28;;;0.61;100.00
35551;BME280;21655;46.056;13.616;2023-02-02T01:39:34;100839.88;;;0.55;100.00
35551;BME280;21655;46.056;13.616;2023-02-02T01:42:01;100831.03;;;0.51;100.00
35551;BME280;21655;46.056;13.616;2023-02-02T01:47:18;100827.88;;;0.57;100.00
35551;BME280;21655;46.056;13.616;2023-02-02T01:49:45;100834.31;;;0.56;100.00
35551;BME280;21655;46.056;13.616;2023-02-02T01:52:13;100839.75;;;0.56;100.00
35551;BME280;21655;46.056;13.616;2023-02-02T01:54:49;100834.75;;;0.63;100.00
35551;BME280;21655;46.056;13.616;2023-02-02T01:57:32;100831.72;;;0.67;100.00
35551;BME280;21655;46.056;13.616;2023-02-02T02:00:03;100832.59;;;0.68;100.00
35551;BME280;21655;46.056;13.616;2023-02-02T02:02:30;100835.88;;;0.73;100.00
35551;BME280;21655;46.056;13.616;2023-02-02T02:04:56;100825.88;;;0.86;100.00
35551;BME280;21655;46.056;13.616;2023-02-02T02:07:24;100828.25;;;0.90;100.00
35551;BME280;21655;46.056;13.616;2023-02-02T02:09:49;100830.88;;;0.92;100.00
35551;BME280;21655;46.056;13.616;2023-02-02T02:12:15;100829.56;;;0.85;100.00
35551;BME280;21655;46.056;13.616;2023-02-02T02:14:43;100837.31;;;0.78;100.00
35551;BME280;21655;46.056;13.616;2023-02-02T02:17:39;100834.81;;;0.75;100.00
35551;BME280;21655;46.056;13.616;2023-02-02T02:23:48;100836.78;;;0.98;100.00
35551;BME280;21655;46.056;13.616;2023-02-02T02:33:01;100821.91;;;1.27;100.00
35551;BME280;21655;46.056;13.616;2023-02-02T02:43:16;100824.72;;;1.38;100.00
35551;BME280;21655;46.056;13.616;2023-02-02T02:45:43;100827.44;;;1.38;100.00
35551;BME280;21655;46.056;13.616;2023-02-02T02:48:10;100812.81;;;1.39;100.00
35551;BME280;21655;46.056;13.616;2023-02-02T02:50:36;100811.25;;;1.48;100.00
35551;BME280;21655;46.056;13.616;2023-02-02T02:53:08;100807.34;;;1.39;100.00
35551;BME280;21655;46.056;13.616;2023-02-02T02:55:45;100807.16;;;1.42;100.00
35551;BME280;21655;46.056;13.616;2023-02-02T02:58:35;100809.09;;;1.53;100.00
35551;BME280;21655;46.056;13.616;2023-02-02T03:06:37;100794.50;;;1.65;100.00
35551;BME280;21655;46.056;13.616;2023-02-02T03:09:09;100800.09;;;1.63;100.00
35551;BME280;21655;46.056;13.616;2023-02-02T03:11:36;100798.78;;;1.69;100.00
35551;BME280;21655;46.056;13.616;2023-02-02T03:14:02;100801.84;;;1.64;100.00
35551;BME280;21655;46.056;13.616;2023-02-02T03:16:28;100806.00;;;1.70;100.00
35551;BME280;21655;46.056;13.616;2023-02-02T03:18:54;100814.06;;;1.71;100.00
35551;BME280;21655;46.056;13.616;2023-02-02T03:21:21;100820.41;;;1.72;100.00
35551;BME280;21655;46.056;13.616;2023-02-02T03:23:47;100814.06;;;1.71;100.00
35551;BME280;21655;46.056;13.616;2023-02-02T03:26:12;100821.16;;;1.74;100.00
35551;BME280;21655;46.056;13.616;2023-02-02T03:28:38;100816.44;;;1.76;100.00
35551;BME280;21655;46.056;13.616;2023-02-02T03:31:04;100813.28;;;1.82;100.00
35551;BME280;21655;46.056;13.616;2023-02-02T03:33:31;100817.63;;;1.84;100.00
35551;BME280;21655;46.056;13.616;2023-02-02T03:35:57;100807.44;;;1.86;100.00
35551;BME280;21655;46.056;13.616;2023-02-02T03:38:23;100806.69;;;1.84;100.00
35551;BME280;21655;46.056;13.616;2023-02-02T03:40:49;100809.19;;;1.87;100.00
35551;BME280;21655;46.056;13.616;2023-02-02T03:43:19;100813.31;;;1.92;100.00
35551;BME280;21655;46.056;13.616;2023-02-02T03:45:45;100816.59;;;1.97;100.00
35551;BME280;21655;46.056;13.616;2023-02-02T03:48:11;100809.28;;;1.98;100.00
35551;BME280;21655;46.056;13.616;2023-02-02T03:50:36;100809.16;;;1.99;100.00
35551;BME280;21655;46.056;13.616;2023-02-02T03:53:02;100813.22;;;1.94;100.00
35551;BME280;21655;46.056;13.616;2023-02-02T03:55:28;100812.09;;;1.96;100.00
35551;BME280;21655;46.056;13.616;2023-02-02T03:57:53;100814.72;;;1.98;100.00
35551;BME280;21655;46.056;13.616;2023-02-02T04:00:19;100823.81;;;1.98;100.00
35551;BME280;21655;46.056;13.616;2023-02-02T04:02:44;100816.47;;;1.99;100.00
35551;BME280;21655;46.056;13.616;2023-02-02T04:05:10;100821.72;;;2.02;100.00
35551;BME280;21655;46.056;13.616;2023-02-02T04:07:35;100812.53;;;2.03;100.00
35551;BME280;21655;46.056;13.616;2023-02-02T04:10:01;100817.66;;;2.07;100.00
35551;BME280;21655;46.056;13.616;2023-02-02T04:12:27;100805.72;;;2.08;100.00
35551;BME280;21655;46.056;13.616;2023-02-02T04:14:52;100811.19;;;2.08;100.00
35551;BME280;21655;46.056;13.616;2023-02-02T04:17:18;100814.56;;;2.12;100.00
35551;BME280;21655;46.056;13.616;2023-02-02T04:19:43;100824.41;;;2.14;100.00
35551;BME280;21655;46.056;13.616;2023-02-02T04:22:08;100810.94;;;2.11;100.00
35551;BME280;21655;46.056;13.616;2023-02-02T04:24:34;100807.22;;;2.12;100.00
35551;BME280;21655;46.056;13.616;2023-02-02T04:26:59;100809.19;;;2.10;100.00
35551;BME280;21655;46.056;13.616;2023-02-02T04:29:25;100815.16;;;2.04;100.00
35551;BME280;21655;46.056;13.616;2023-02-02T04:31:50;100820.13;;;2.10;100.00
35551;BME280;21655;46.056;13.616;2023-02-02T04:34:16;100803.38;;;2.15;100.00
35551;BME280;21655;46.056;13.616;2023-02-02T04:36:41;100808.63;;;2.18;100.00
35551;BME280;21655;46.056;13.616;2023-02-02T04:39:10;100820.03;;;2.12;100.00
35551;BME280;21655;46.056;13.616;2023-02-02T04:41:35;100814.56;;;2.12;100.00
35551;BME280;21655;46.056;13.616;2023-02-02T04:44:01;100800.56;;;2.16;100.00
35551;BME280;21655;46.056;13.616;2023-02-02T04:46:26;100800.06;;;2.22;100.00
35551;BME280;21655;46.056;13.616;2023-02-02T04:48:52;100809.16;;;2.23;100.00
35551;BME280;21655;46.056;13.616;2023-02-02T04:51:18;100802.47;;;2.27;100.00
35551;BME280;21655;46.056;13.616;2023-02-02T04:53:44;100809.69;;;2.28;100.00
35551;BME280;21655;46.056;13.616;2023-02-02T04:56:15;100812.28;;;2.29;100.00
35551;BME280;21655;46.056;13.616;2023-02-02T04:58:42;100808.34;;;2.33;100.00
35551;BME280;21655;46.056;13.616;2023-02-02T05:01:09;100822.13;;;2.32;100.00
35551;BME280;21655;46.056;13.616;2023-02-02T05:03:38;100823.00;;;2.32;100.00
35551;BME280;21655;46.056;13.616;2023-02-02T05:06:04;100816.06;;;2.39;100.00
35551;BME280;21655;46.056;13.616;2023-02-02T05:08:30;100802.69;;;2.47;100.00
35551;BME280;21655;46.056;13.616;2023-02-02T05:10:55;100812.00;;;2.45;100.00
35551;BME280;21655;46.056;13.616;2023-02-02T05:13:21;100810.25;;;2.44;100.00
35551;BME280;21655;46.056;13.616;2023-02-02T05:15:47;100808.38;;;2.44;100.00
35551;BME280;21655;46.056;13.616;2023-02-02T05:18:12;100815.97;;;2.41;100.00
35551;BME280;21655;46.056;13.616;2023-02-02T05:20:38;100804.13;;;2.40;100.00
35551;BME280;21655;46.056;13.616;2023-02-02T05:23:03;100811.06;;;2.33;100.00
35551;BME280;21655;46.056;13.616;2023-02-02T05:25:28;100818.06;;;2.37;100.00
35551;BME280;21655;46.056;13.616;2023-02-02T05:27:54;100824.16;;;2.41;100.00
35551;BME280;21655;46.056;13.616;2023-02-02T05:30:19;100832.00;;;2.45;100.00
35551;BME280;21655;46.056;13.616;2023-02-02T05:32:45;100835.63;;;2.46;100.00
35551;BME280;21655;46.056;13.616;2023-02-02T05:35:10;100851.81;;;2.49;100.00
35551;BME280;21655;46.056;13.616;2023-02-02T05:37:36;100845.47;;;2.48;100.00
35551;BME280;21655;46.056;13.616;2023-02-02T05:40:02;100847.97;;;2.51;100.00
35551;BME280;21655;46.056;13.616;2023-02-02T05:42:28;100844.88;;;2.56;100.00
35551;BME280;21655;46.056;13.616;2023-02-02T05:44:53;100835.19;;;2.63;100.00
35551;BME280;21655;46.056;13.616;2023-02-02T05:47:19;100836.28;;;2.60;100.00
35551;BME280;21655;46.056;13.616;2023-02-02T05:49:45;100830.81;;;2.60;100.00
35551;BME280;21655;46.056;13.616;2023-02-02T05:52:17;100835.28;;;2.61;100.00
35551;BME280;21655;46.056;13.616;2023-02-02T05:54:43;100831.34;;;2.65;100.00
35551;BME280;21655;46.056;13.616;2023-02-02T05:57:09;100842.66;;;2.61;100.00
35551;BME280;21655;46.056;13.616;2023-02-02T05:59:34;100848.13;;;2.61;100.00
35551;BME280;21655;46.056;13.616;2023-02-02T06:02:00;100839.78;;;2.62;100.00
35551;BME280;21655;46.056;13.616;2023-02-02T06:04:25;100848.00;;;2.62;100.00
35551;BME280;21655;46.056;13.616;2023-02-02T06:06:51;100847.41;;;2.70;100.00
35551;BME280;21655;46.056;13.616;2023-02-02T06:09:16;100842.47;;;2.75;100.00
35551;BME280;21655;46.056;13.616;2023-02-02T06:11:43;100858.63;;;2.78;100.00
35551;BME280;21655;46.056;13.616;2023-02-02T06:14:09;100850.13;;;2.70;100.00
35551;BME280;21655;46.056;13.616;2023-02-02T06:16:34;100843.91;;;2.68;100.00
35551;BME280;21655;46.056;13.616;2023-02-02T06:19:00;100852.41;;;2.76;100.00
35551;BME280;21655;46.056;13.616;2023-02-02T06:21:25;100842.47;;;2.75;100.00
35551;BME280;21655;46.056;13.616;2023-02-02T06:23:51;100847.69;;;2.78;100.00
35551;BME280;21655;46.056;13.616;2023-02-02T06:26:17;100853.03;;;2.79;100.00
35551;BME280;21655;46.056;13.616;2023-02-02T06:28:47;100850.19;;;2.81;100.00
35551;BME280;21655;46.056;13.616;2023-02-02T06:31:13;100851.19;;;2.80;100.00
35551;BME280;21655;46.056;13.616;2023-02-02T06:33:44;100851.81;;;2.83;100.00
35551;BME280;21655;46.056;13.616;2023-02-02T06:36:09;100856.31;;;2.84;100.00
35551;BME280;21655;46.056;13.616;2023-02-02T06:38:34;100854.41;;;2.85;100.00
35551;BME280;21655;46.056;13.616;2023-02-02T06:41:01;100868.34;;;2.82;100.00
35551;BME280;21655;46.056;13.616;2023-02-02T06:43:27;100863.88;;;2.81;100.00
35551;BME280;21655;46.056;13.616;2023-02-02T06:45:53;100873.59;;;2.85;100.00
35551;BME280;21655;46.056;13.616;2023-02-02T06:48:18;100873.22;;;2.89;100.00
35551;BME280;21655;46.056;13.616;2023-02-02T06:50:44;100881.34;;;2.91;100.00
35551;BME280;21655;46.056;13.616;2023-02-02T06:53:09;100871.25;;;2.91;100.00
35551;BME280;21655;46.056;13.616;2023-02-02T06:55:34;100877.22;;;2.96;100.00
35551;BME280;21655;46.056;13.616;2023-02-02T06:58:00;100874.28;;;2.99;100.00
35551;BME280;21655;46.056;13.616;2023-02-02T07:00:27;100882.25;;;3.02;100.00
35551;BME280;21655;46.056;13.616;2023-02-02T07:02:53;100874.53;;;3.07;100.00
35551;BME280;21655;46.056;13.616;2023-02-02T07:05:19;100870.78;;;3.08;100.00
35551;BME280;21655;46.056;13.616;2023-02-02T07:07:45;100876.81;;;3.13;100.00
35551;BME280;21655;46.056;13.616;2023-02-02T07:10:11;100884.38;;;3.10;100.00
35551;BME280;21655;46.056;13.616;2023-02-02T07:12:37;100888.97;;;3.09;100.00
35551;BME280;21655;46.056;13.616;2023-02-02T07:15:03;100895.44;;;3.08;100.00
35551;BME280;21655;46.056;13.616;2023-02-02T07:17:28;100888.22;;;3.07;100.00
35551;BME280;21655;46.056;13.616;2023-02-02T07:19:54;100896.84;;;3.14;100.00
35551;BME280;21655;46.056;13.616;2023-02-02T07:22:19;100893.25;;;3.24;100.00
35551;BME280;21655;46.056;13.616;2023-02-02T07:24:45;100910.44;;;3.26;100.00
35551;BME280;21655;46.056;13.616;2023-02-02T07:27:10;100907.59;;;3.28;100.00
35551;BME280;21655;46.056;13.616;2023-02-02T07:29:36;100914.53;;;3.21;100.00
35551;BME280;21655;46.056;13.616;2023-02-02T07:32:01;100920.69;;;3.35;100.00
35551;BME280;21655;46.056;13.616;2023-02-02T07:34:27;100909.47;;;3.38;100.00
35551;BME280;21655;46.056;13.616;2023-02-02T07:36:52;100917.34;;;3.43;100.00
35551;BME280;21655;46.056;13.616;2023-02-02T07:39:18;100906.50;;;3.52;100.00
35551;BME280;21655;46.056;13.616;2023-02-02T07:41:43;100912.22;;;3.60;100.00
35551;BME280;21655;46.056;13.616;2023-02-02T07:44:11;100915.34;;;3.66;100.00
35551;BME280;21655;46.056;13.616;2023-02-02T07:46:42;100912.13;;;3.72;100.00
35551;BME280;21655;46.056;13.616;2023-02-02T07:49:11;100912.50;;;3.68;100.00
35551;BME280;21655;46.056;13.616;2023-02-02T07:51:38;100912.75;;;3.76;100.00
35551;BME280;21655;46.056;13.616;2023-02-02T07:54:04;100915.47;;;3.76;100.00
35551;BME280;21655;46.056;13.616;2023-02-02T07:56:30;100914.88;;;3.83;100.00
35551;BME280;21655;46.056;13.616;2023-02-02T07:58:56;100906.53;;;3.96;100.00
35551;BME280;21655;46.056;13.616;2023-02-02T08:01:23;100914.47;;;4.10;100.00
35551;BME280;21655;46.056;13.616;2023-02-02T08:03:51;100916.84;;;4.25;100.00
35551;BME280;21655;46.056;13.616;2023-02-02T08:06:20;100921.06;;;4.29;100.00
35551;BME280;21655;46.056;13.616;2023-02-02T08:08:46;100930.53;;;4.36;100.00
35551;BME280;21655;46.056;13.616;2023-02-02T08:11:14;100914.78;;;4.49;100.00
35551;BME280;21655;46.056;13.616;2023-02-02T08:13:41;100923.38;;;4.56;100.00
35551;BME280;21655;46.056;13.616;2023-02-02T08:16:07;100920.34;;;4.70;100.00
35551;BME280;21655;46.056;13.616;2023-02-02T08:18:33;100927.94;;;4.77;100.00
35551;BME280;21655;46.056;13.616;2023-02-02T08:21:00;100927.28;;;4.85;100.00
35551;BME280;21655;46.056;13.616;2023-02-02T08:23:26;100929.22;;;4.73;100.00
35551;BME280;21655;46.056;13.616;2023-02-02T08:25:53;100919.16;;;4.83;100.00
35551;BME280;21655;46.056;13.616;2023-02-02T08:28:18;100922.63;;;4.96;100.00
35551;BME280;21655;46.056;13.616;2023-02-02T08:30:44;100922.84;;;5.04;100.00
35551;BME280;21655;46.056;13.616;2023-02-02T08:33:10;100924.13;;;5.21;100.00
35551;BME280;21655;46.056;13.616;2023-02-02T08:35:43;100907.44;;;5.33;100.00
35551;BME280;21655;46.056;13.616;2023-02-02T08:38:08;100903.84;;;5.53;100.00
35551;BME280;21655;46.056;13.616;2023-02-02T08:40:34;100913.16;;;5.61;100.00
35551;BME280;21655;46.056;13.616;2023-02-02T08:43:00;100903.28;;;5.79;100.00
35551;BME280;21655;46.056;13.616;2023-02-02T08:45:26;100900.91;;;5.75;100.00
35551;BME280;21655;46.056;13.616;2023-02-02T08:47:53;100909.53;;;5.81;100.00
35551;BME280;21655;46.056;13.616;2023-02-02T08:50:18;100914.19;;;5.90;100.00
35551;BME280;21655;46.056;13.616;2023-02-02T08:52:44;100910.75;;;5.98;100.00
35551;BME280;21655;46.056;13.616;2023-02-02T08:55:09;100916.41;;;6.26;100.00
35551;BME280;21655;46.056;13.616;2023-02-02T08:57:35;100916.25;;;6.37;100.00
35551;BME280;21655;46.056;13.616;2023-02-02T09:00:01;100914.22;;;6.39;100.00
35551;BME280;21655;46.056;13.616;2023-02-02T09:02:27;100922.22;;;6.42;100.00
35551;BME280;21655;46.056;13.616;2023-02-02T09:04:52;100913.56;;;6.56;100.00
35551;BME280;21655;46.056;13.616;2023-02-02T09:07:18;100914.88;;;6.62;100.00
35551;BME280;21655;46.056;13.616;2023-02-02T09:09:44;100913.19;;;6.89;100.00
35551;BME280;21655;46.056;13.616;2023-02-02T09:12:10;100907.09;;;7.05;100.00
35551;BME280;21655;46.056;13.616;2023-02-02T09:14:36;100914.59;;;7.59;100.00
35551;BME280;21655;46.056;13.616;2023-02-02T09:17:01;100909.41;;;8.02;100.00
35551;BME280;21655;46.056;13.616;2023-02-02T09:19:27;100917.97;;;8.09;100.00
35551;BME280;21655;46.056;13.616;2023-02-02T09:21:52;100914.13;;;8.29;100.00
35551;BME280;21655;46.056;13.616;2023-02-02T09:24:18;100924.72;;;8.33;100.00
35551;BME280;21655;46.056;13.616;2023-02-02T09:26:44;100922.41;;;8.83;100.00
35551;BME280;21655;46.056;13.616;2023-02-02T09:29:14;100916.06;;;9.60;100.00
35551;BME280;21655;46.056;13.616;2023-02-02T09:31:42;100920.28;;;9.29;100.00
35551;BME280;21655;46.056;13.616;2023-02-02T09:34:10;100924.00;;;9.37;100.00
35551;BME280;21655;46.056;13.616;2023-02-02T09:36:37;100918.81;;;11.11;100.00
35551;BME280;21655;46.056;13.616;2023-02-02T09:39:04;100907.44;;;13.47;100.00
35551;BME280;21655;46.056;13.616;2023-02-02T09:50:01;100920.19;;;12.81;100.00
35551;BME280;21655;46.056;13.616;2023-02-02T09:52:41;100922.81;;;14.03;97.31
35551;BME280;21655;46.056;13.616;2023-02-02T09:55:21;100925.84;;;16.15;83.48
35551;BME280;21655;46.056;13.616;2023-02-02T09:57:56;100936.00;;;16.78;74.24
35551;BME280;21655;46.056;13.616;2023-02-02T10:00:36;100930.16;;;17.53;70.93
35551;BME280;21655;46.056;13.616;2023-02-02T10:03:14;100921.44;;;18.28;65.18
35551;BME280;21655;46.056;13.616;2023-02-02T10:08:25;100919.31;;;19.19;58.44
35551;BME280;21655;46.056;13.616;2023-02-02T10:10:52;100917.69;;;19.49;55.87
35551;BME280;21655;46.056;13.616;2023-02-02T10:13:28;100911.88;;;19.44;54.69
35551;BME280;21655;46.056;13.616;2023-02-02T10:16:09;100913.53;;;18.95;55.25
35551;BME280;21655;46.056;13.616;2023-02-02T10:18:46;100908.44;;;18.14;57.13
35551;BME280;21655;46.056;13.616;2023-02-02T10:21:46;100903.03;;;18.71;58.18
35551;BME280;21655;46.056;13.616;2023-02-02T10:24:25;100904.78;;;18.59;56.73
35551;BME280;21655;46.056;13.616;2023-02-02T10:26:57;100898.28;;;18.06;57.80
35551;BME280;21655;46.056;13.616;2023-02-02T10:34:32;100887.28;;;15.41;71.64
35551;BME280;21655;46.056;13.616;2023-02-02T10:43:11;100871.47;;;17.65;63.91
35551;BME280;21655;46.056;13.616;2023-02-02T10:45:49;100867.31;;;18.84;59.44
35551;BME280;21655;46.056;13.616;2023-02-02T10:48:18;100861.28;;;18.68;57.97
35551;BME280;21655;46.056;13.616;2023-02-02T10:50:49;100853.72;;;18.81;57.00
35551;BME280;21655;46.056;13.616;2023-02-02T10:53:16;100855.72;;;19.18;57.27
35551;BME280;21655;46.056;13.616;2023-02-02T10:56:13;100845.16;;;20.13;53.93
35551;BME280;21655;46.056;13.616;2023-02-02T10:58:53;100847.09;;;19.13;53.51
35551;BME280;21655;46.056;13.616;2023-02-02T11:01:21;100835.22;;;17.44;57.42
35551;BME280;21655;46.056;13.616;2023-02-02T11:03:48;100842.16;;;17.01;60.21
35551;BME280;21655;46.056;13.616;2023-02-02T11:06:35;100839.63;;;16.04;63.92
35551;BME280;21655;46.056;13.616;2023-02-02T11:09:22;100834.69;;;16.61;63.46
35551;BME280;21655;46.056;13.616;2023-02-02T11:11:56;100828.22;;;16.33;63.72
35551;BME280;21655;46.056;13.616;2023-02-02T11:14:45;100829.25;;;16.26;64.86
35551;BME280;21655;46.056;13.616;2023-02-02T11:17:29;100816.03;;;16.41;63.57
35551;BME280;21655;46.056;13.616;2023-02-02T11:19:55;100815.84;;;15.87;65.96
35551;BME280;21655;46.056;13.616;2023-02-02T11:22:33;100811.78;;;15.90;65.89
35551;BME280;21655;46.056;13.616;2023-02-02T11:25:02;100800.66;;;15.27;67.60
35551;BME280;21655;46.056;13.616;2023-02-02T11:27:34;100805.22;;;14.93;70.37
35551;BME280;21655;46.056;13.616;2023-02-02T11:32:46;100806.22;;;15.06;70.13
35551;BME280;21655;46.056;13.616;2023-02-02T11:35:20;100792.66;;;15.03;71.07
35551;BME280;21655;46.056;13.616;2023-02-02T11:42:56;100780.41;;;14.83;73.33
35551;BME280;21655;46.056;13.616;2023-02-02T11:45:37;100770.50;;;15.22;73.86
35551;BME280;21655;46.056;13.616;2023-02-02T11:48:16;100765.97;;;15.91;69.09
35551;BME280;21655;46.056;13.616;2023-02-02T11:50:50;100769.34;;;15.10;71.20
35551;BME280;21655;46.056;13.616;2023-02-02T11:53:23;100760.16;;;15.37;71.47
35551;BME280;21655;46.056;13.616;2023-02-02T11:55:50;100750.03;;;15.64;68.62
35551;BME280;21655;46.056;13.616;2023-02-02T11:58:21;100768.25;;;15.11;71.26
35551;BME280;21655;46.056;13.616;2023-02-02T12:00:55;100751.56;;;15.39;71.69
35551;BME280;21655;46.056;13.616;2023-02-02T12:03:25;100757.50;;;15.29;71.46
35551;BME280;21655;46.056;13.616;2023-02-02T12:05:51;100756.22;;;15.11;70.75
35551;BME280;21655;46.056;13.616;2023-02-02T12:08:16;100753.25;;;14.56;72.65
35551;BME280;21655;46.056;13.616;2023-02-02T12:10:55;100741.19;;;15.12;73.02
35551;BME280;21655;46.056;13.616;2023-02-02T12:19:03;100739.59;;;15.24;74.69
35551;BME280;21655;46.056;13.616;2023-02-02T12:24:58;100746.75;;;15.12;71.80
35551;BME280;21655;46.056;13.616;2023-02-02T12:43:40;100739.44;;;15.80;69.26
35551;BME280;21655;46.056;13.616;2023-02-02T12:54:25;100731.25;;;14.68;75.39
35551;BME280;21655;46.056;13.616;2023-02-02T12:57:10;100733.69;;;15.33;73.82
35551;BME280;21655;46.056;13.616;2023-02-02T13:08:19;100723.28;;;14.86;75.30
35551;BME280;21655;46.056;13.616;2023-02-02T13:10:50;100708.53;;;15.12;76.37
35551;BME280;21655;46.056;13.616;2023-02-02T13:13:24;100715.88;;;14.93;76.85
35551;BME280;21655;46.056;13.616;2023-02-02T13:15:59;100726.41;;;14.55;78.79
35551;BME280;21655;46.056;13.616;2023-02-02T13:18:35;100725.00;;;14.45;81.16
35551;BME280;21655;46.056;13.616;2023-02-02T13:21:05;100725.34;;;14.77;79.10
35551;BME280;21655;46.056;13.616;2023-02-02T13:23:40;100726.16;;;14.92;79.39
35551;BME280;21655;46.056;13.616;2023-02-02T13:26:22;100714.66;;;15.02;77.66
35551;BME280;21655;46.056;13.616;2023-02-02T13:29:07;100721.06;;;14.75;78.90
35551;BME280;21655;46.056;13.616;2023-02-02T13:31:48;100724.94;;;14.59;81.03
35551;BME280;21655;46.056;13.616;2023-02-02T13:36:44;100725.13;;;14.58;81.24
35551;BME280;21655;46.056;13.616;2023-02-02T13:39:25;100725.31;;;14.21;82.81
35551;BME280;21655;46.056;13.616;2023-02-02T13:41:54;100724.84;;;14.67;82.66
35551;BME280;21655;46.056;13.616;2023-02-02T13:44:34;100726.47;;;14.62;81.52
35551;BME280;21655;46.056;13.616;2023-02-02T13:47:07;100728.38;;;14.11;84.38
35551;BME280;21655;46.056;13.616;2023-02-02T13:49:37;100728.19;;;14.13;87.96
35551;BME280;21655;46.056;13.616;2023-02-02T13:57:46;100728.56;;;13.95;88.11
35551;BME280;21655;46.056;13.616;2023-02-02T14:02:57;100734.16;;;13.81;90.79
35551;BME280;21655;46.056;13.616;2023-02-02T14:05:25;100734.94;;;13.89;91.60
35551;BME280;21655;46.056;13.616;2023-02-02T14:08:06;100733.59;;;13.85;91.90
35551;BME280;21655;46.056;13.616;2023-02-02T14:10:38;100748.88;;;13.89;91.17
35551;BME280;21655;46.056;13.616;2023-02-02T14:13:17;100752.81;;;13.66;93.17
35551;BME280;21655;46.056;13.616;2023-02-02T14:16:05;100745.59;;;13.86;92.67
35551;BME280;21655;46.056;13.616;2023-02-02T14:23:55;100753.38;;;13.61;97.08
35551;BME280;21655;46.056;13.616;2023-02-02T14:26:43;100752.63;;;13.30;99.53
35551;BME280;21655;46.056;13.616;2023-02-02T14:34:42;100758.97;;;13.24;100.00
35551;BME280;21655;46.056;13.616;2023-02-02T14:39:38;100773.59;;;13.41;100.00
35551;BME280;21655;46.056;13.616;2023-02-02T14:53:32;100762.22;;;12.61;100.00
35551;BME280;21655;46.056;13.616;2023-02-02T14:56:04;100763.66;;;12.49;100.00
35551;BME280;21655;46.056;13.616;2023-02-02T14:58:53;100768.91;;;12.44;100.00
35551;BME280;21655;46.056;13.616;2023-02-02T15:01:24;100770.50;;;12.38;100.00
35551;BME280;21655;46.056;13.616;2023-02-02T15:06:40;100751.09;;;11.92;100.00
35551;BME280;21655;46.056;13.616;2023-02-02T15:14:56;100754.88;;;11.99;100.00